Charles M. Schulz Sonoma County Airport
KSTS : rendu visible

Aérodrome :











RETROUVEZ-NOUS SUR...

 
LOGIN :

S'inscrire | Disclaimer

   EN    FR    IT 

 









Légende :    VFR   VFR Marginal   IFR   IFR Intensif   IFR Très Intensif
Visi : 
Plafond : 
>= 8 km
>= 3000ft
5 à 8 km
1000 à 3000 ft
1500m à 5 km
500 à 1000 ft
800 à 1500m
200 à 500 ft
< 800m
< 200 ft
Symboles :   Orages  Brouillard  Fortes neiges  Fortes précipitations  Vent > 20 kt






- Altitude de l'aérodrome : 128 ft


KSTS - Charles M. Schulz Sonoma County

DERNIER METAR :
  • 242153Z 23003KT 10SM SCT015 BKN055 14/12 A3015 RMK AO2 SLP202 T01440122

METARs EXPIRÉS :
  • 242057Z 22003KT 10SM SCT011 BKN055 14/12 A3016 RMK AO2 T01390117
  • 242020Z VRB03KT 10SM SCT006 BKN017 13/12 A3018 RMK AO2 T01330117
  • 241953Z 00000KT 7SM BKN004 OVC018 12/11 A3019 RMK AO2 SLP216 T01220111

TAF KSTS
Valide du 24 à 21h jusqu'au 25 à 18h UTC


242055Z 2421/2518 VRB03KT 5SM BR SCT010 BKN025 BKN150
FM250200 VRB03KT 6SM BR VCSH SCT015 BKN025 OVC050
FM250400 00000KT 4SM -SHRA BR BKN010 BKN030 OVC050
FM250900 00000KT 5SM -SHRA BR BKN007 OVC035
TEMPO 2512/2515 1/2SM FG BKN002
FM251500 VRB03KT 1/2SM FG OVC002



MET'MAP, la Météo Aéronautique d'un coup d'oeil ! - Copyright ORBIFLY Décembre 2007 - Disclaimer

ORBIFLY MET'MAP TEAM :

Programmation & Développement : Alexandra Zaïnal
Sur une idée originale de : Baudouin d'Aumeries
Assistance à la programmation : Marc-Olivier Méhu
Soutien technique & logistique : Manuel Goepfert

Contact : metmap@orbifly.com




SOURCES & CREDITS :

   NOAA       Earth
Advisory